sensor_id;sensor_type;location;lat;lon;timestamp;P1;durP1;ratioP1;P2;durP2;ratioP2
9964;SDS011;5023;53.554;9.964;2023-03-01T00:03:16;8.27;;;5.90;;
9964;SDS011;5023;53.554;9.964;2023-03-01T00:08:20;6.40;;;5.70;;
9964;SDS011;5023;53.554;9.964;2023-03-01T00:13:21;7.93;;;5.77;;
9964;SDS011;5023;53.554;9.964;2023-03-01T00:18:24;7.43;;;6.07;;
9964;SDS011;5023;53.554;9.964;2023-03-01T00:23:27;6.90;;;5.87;;
9964;SDS011;5023;53.554;9.964;2023-03-01T00:28:29;8.30;;;6.17;;
9964;SDS011;5023;53.554;9.964;2023-03-01T00:33:34;8.73;;;6.03;;
9964;SDS011;5023;53.554;9.964;2023-03-01T00:38:38;7.03;;;5.67;;
9964;SDS011;5023;53.554;9.964;2023-03-01T00:43:41;7.90;;;5.67;;
9964;SDS011;5023;53.554;9.964;2023-03-01T00:48:43;6.50;;;5.30;;
9964;SDS011;5023;53.554;9.964;2023-03-01T00:53:49;8.10;;;6.00;;
9964;SDS011;5023;53.554;9.964;2023-03-01T00:58:52;6.83;;;6.00;;
9964;SDS011;5023;53.554;9.964;2023-03-01T01:03:55;6.57;;;5.47;;
9964;SDS011;5023;53.554;9.964;2023-03-01T01:09:00;7.00;;;5.40;;
9964;SDS011;5023;53.554;9.964;2023-03-01T01:14:05;6.30;;;5.57;;
9964;SDS011;5023;53.554;9.964;2023-03-01T01:19:10;6.30;;;5.27;;
9964;SDS011;5023;53.554;9.964;2023-03-01T01:24:15;8.43;;;4.97;;
9964;SDS011;5023;53.554;9.964;2023-03-01T01:29:17;7.00;;;4.73;;
9964;SDS011;5023;53.554;9.964;2023-03-01T01:34:19;6.07;;;5.33;;
9964;SDS011;5023;53.554;9.964;2023-03-01T01:39:24;4.97;;;4.40;;
9964;SDS011;5023;53.554;9.964;2023-03-01T01:44:26;5.70;;;4.93;;
9964;SDS011;5023;53.554;9.964;2023-03-01T01:49:31;5.60;;;5.00;;
9964;SDS011;5023;53.554;9.964;2023-03-01T01:54:40;6.10;;;4.60;;
9964;SDS011;5023;53.554;9.964;2023-03-01T01:59:47;5.73;;;4.63;;
9964;SDS011;5023;53.554;9.964;2023-03-01T02:04:55;5.27;;;4.37;;
9964;SDS011;5023;53.554;9.964;2023-03-01T02:10:06;4.47;;;4.07;;
9964;SDS011;5023;53.554;9.964;2023-03-01T02:15:10;4.13;;;3.60;;
9964;SDS011;5023;53.554;9.964;2023-03-01T02:20:15;4.70;;;4.20;;
9964;SDS011;5023;53.554;9.964;2023-03-01T02:25:29;4.50;;;3.90;;
9964;SDS011;5023;53.554;9.964;2023-03-01T02:30:36;6.33;;;4.00;;
9964;SDS011;5023;53.554;9.964;2023-03-01T02:35:58;5.00;;;3.90;;
9964;SDS011;5023;53.554;9.964;2023-03-01T02:41:02;4.03;;;3.63;;
9964;SDS011;5023;53.554;9.964;2023-03-01T02:46:12;3.60;;;3.30;;
9964;SDS011;5023;53.554;9.964;2023-03-01T02:51:19;4.30;;;3.47;;
9964;SDS011;5023;53.554;9.964;2023-03-01T02:56:27;3.30;;;3.00;;
9964;SDS011;5023;53.554;9.964;2023-03-01T03:01:32;4.97;;;3.60;;
9964;SDS011;5023;53.554;9.964;2023-03-01T03:06:37;6.17;;;3.80;;
9964;SDS011;5023;53.554;9.964;2023-03-01T03:11:39;5.10;;;3.77;;
9964;SDS011;5023;53.554;9.964;2023-03-01T03:16:44;5.60;;;4.40;;
9964;SDS011;5023;53.554;9.964;2023-03-01T03:21:48;4.63;;;4.20;;
9964;SDS011;5023;53.554;9.964;2023-03-01T03:26:50;4.23;;;3.13;;
9964;SDS011;5023;53.554;9.964;2023-03-01T03:31:54;6.53;;;3.90;;
9964;SDS011;5023;53.554;9.964;2023-03-01T03:36:56;4.63;;;3.90;;
9964;SDS011;5023;53.554;9.964;2023-03-01T03:41:59;4.10;;;3.70;;
9964;SDS011;5023;53.554;9.964;2023-03-01T03:47:03;4.77;;;3.37;;
9964;SDS011;5023;53.554;9.964;2023-03-01T03:52:05;4.07;;;3.67;;
9964;SDS011;5023;53.554;9.964;2023-03-01T03:57:13;7.97;;;3.87;;
9964;SDS011;5023;53.554;9.964;2023-03-01T04:02:16;4.67;;;3.73;;
9964;SDS011;5023;53.554;9.964;2023-03-01T04:07:24;4.93;;;4.10;;
9964;SDS011;5023;53.554;9.964;2023-03-01T04:12:26;4.90;;;3.80;;
9964;SDS011;5023;53.554;9.964;2023-03-01T04:17:29;3.80;;;3.33;;
9964;SDS011;5023;53.554;9.964;2023-03-01T04:22:31;4.30;;;3.23;;
9964;SDS011;5023;53.554;9.964;2023-03-01T04:27:34;5.70;;;4.70;;
9964;SDS011;5023;53.554;9.964;2023-03-01T04:32:40;3.30;;;3.00;;
9964;SDS011;5023;53.554;9.964;2023-03-01T04:37:42;3.60;;;3.30;;
9964;SDS011;5023;53.554;9.964;2023-03-01T04:42:46;7.43;;;4.80;;
9964;SDS011;5023;53.554;9.964;2023-03-01T04:47:49;4.17;;;3.60;;
9964;SDS011;5023;53.554;9.964;2023-03-01T04:52:54;3.43;;;3.13;;
9964;SDS011;5023;53.554;9.964;2023-03-01T04:57:58;3.83;;;3.40;;
9964;SDS011;5023;53.554;9.964;2023-03-01T05:03:02;3.80;;;3.40;;
9964;SDS011;5023;53.554;9.964;2023-03-01T05:08:06;3.83;;;3.00;;
9964;SDS011;5023;53.554;9.964;2023-03-01T05:13:08;6.10;;;3.40;;
9964;SDS011;5023;53.554;9.964;2023-03-01T05:18:12;4.00;;;3.60;;
9964;SDS011;5023;53.554;9.964;2023-03-01T05:23:14;5.13;;;3.37;;
9964;SDS011;5023;53.554;9.964;2023-03-01T05:28:21;4.43;;;3.10;;
9964;SDS011;5023;53.554;9.964;2023-03-01T05:33:25;4.20;;;3.80;;
9964;SDS011;5023;53.554;9.964;2023-03-01T05:38:28;4.60;;;3.83;;
9964;SDS011;5023;53.554;9.964;2023-03-01T05:43:31;3.77;;;3.17;;
9964;SDS011;5023;53.554;9.964;2023-03-01T05:48:36;4.33;;;3.60;;
9964;SDS011;5023;53.554;9.964;2023-03-01T05:53:40;4.07;;;3.67;;
9964;SDS011;5023;53.554;9.964;2023-03-01T05:58:42;7.43;;;4.07;;
9964;SDS011;5023;53.554;9.964;2023-03-01T06:03:46;4.70;;;3.77;;
9964;SDS011;5023;53.554;9.964;2023-03-01T06:08:48;6.53;;;4.07;;
9964;SDS011;5023;53.554;9.964;2023-03-01T06:13:50;8.03;;;4.03;;
9964;SDS011;5023;53.554;9.964;2023-03-01T06:18:54;3.70;;;3.37;;
9964;SDS011;5023;53.554;9.964;2023-03-01T06:23:58;5.00;;;3.80;;
9964;SDS011;5023;53.554;9.964;2023-03-01T06:29:03;4.50;;;3.90;;
9964;SDS011;5023;53.554;9.964;2023-03-01T06:34:06;7.30;;;5.40;;
9964;SDS011;5023;53.554;9.964;2023-03-01T06:39:08;6.60;;;4.80;;
9964;SDS011;5023;53.554;9.964;2023-03-01T06:44:12;6.40;;;4.40;;
9964;SDS011;5023;53.554;9.964;2023-03-01T06:49:15;5.70;;;4.37;;
9964;SDS011;5023;53.554;9.964;2023-03-01T06:54:17;6.43;;;4.57;;
9964;SDS011;5023;53.554;9.964;2023-03-01T06:59:22;6.00;;;4.43;;
9964;SDS011;5023;53.554;9.964;2023-03-01T07:04:26;9.73;;;4.80;;
9964;SDS011;5023;53.554;9.964;2023-03-01T07:09:30;6.63;;;4.60;;
9964;SDS011;5023;53.554;9.964;2023-03-01T07:14:38;8.33;;;4.50;;
9964;SDS011;5023;53.554;9.964;2023-03-01T07:19:41;6.50;;;3.83;;
9964;SDS011;5023;53.554;9.964;2023-03-01T07:24:45;7.50;;;4.93;;
9964;SDS011;5023;53.554;9.964;2023-03-01T07:29:47;11.10;;;5.40;;
9964;SDS011;5023;53.554;9.964;2023-03-01T07:34:51;9.80;;;6.60;;
9964;SDS011;5023;53.554;9.964;2023-03-01T07:39:54;9.13;;;7.30;;
9964;SDS011;5023;53.554;9.964;2023-03-01T07:44:58;10.53;;;6.53;;
9964;SDS011;5023;53.554;9.964;2023-03-01T07:50:09;9.47;;;6.10;;
9964;SDS011;5023;53.554;9.964;2023-03-01T07:55:17;9.27;;;6.07;;
9964;SDS011;5023;53.554;9.964;2023-03-01T08:00:20;10.33;;;6.60;;
9964;SDS011;5023;53.554;9.964;2023-03-01T08:05:24;13.77;;;6.60;;
9964;SDS011;5023;53.554;9.964;2023-03-01T08:10:26;9.43;;;7.20;;
9964;SDS011;5023;53.554;9.964;2023-03-01T08:15:28;11.03;;;7.33;;
9964;SDS011;5023;53.554;9.964;2023-03-01T08:20:35;10.83;;;7.53;;
9964;SDS011;5023;53.554;9.964;2023-03-01T08:25:37;11.50;;;8.30;;
9964;SDS011;5023;53.554;9.964;2023-03-01T08:30:39;14.60;;;10.43;;
9964;SDS011;5023;53.554;9.964;2023-03-01T08:35:44;12.63;;;9.27;;
9964;SDS011;5023;53.554;9.964;2023-03-01T08:40:46;12.77;;;9.60;;
9964;SDS011;5023;53.554;9.964;2023-03-01T08:45:48;11.37;;;8.87;;
9964;SDS011;5023;53.554;9.964;2023-03-01T08:50:52;12.33;;;9.93;;
9964;SDS011;5023;53.554;9.964;2023-03-01T08:55:54;15.17;;;9.70;;
9964;SDS011;5023;53.554;9.964;2023-03-01T09:00:57;20.43;;;13.13;;
9964;SDS011;5023;53.554;9.964;2023-03-01T09:06:04;66.07;;;41.97;;
9964;SDS011;5023;53.554;9.964;2023-03-01T09:11:08;33.17;;;21.53;;
9964;SDS011;5023;53.554;9.964;2023-03-01T09:16:12;23.97;;;15.23;;
9964;SDS011;5023;53.554;9.964;2023-03-01T09:21:18;59.53;;;33.33;;
9964;SDS011;5023;53.554;9.964;2023-03-01T09:26:22;39.47;;;24.17;;
9964;SDS011;5023;53.554;9.964;2023-03-01T09:31:26;14.93;;;12.40;;
9964;SDS011;5023;53.554;9.964;2023-03-01T09:36:29;17.53;;;13.23;;
9964;SDS011;5023;53.554;9.964;2023-03-01T09:41:44;24.10;;;16.83;;
9964;SDS011;5023;53.554;9.964;2023-03-01T09:46:48;22.47;;;18.17;;
9964;SDS011;5023;53.554;9.964;2023-03-01T09:51:57;16.20;;;12.70;;
9964;SDS011;5023;53.554;9.964;2023-03-01T09:57:06;15.77;;;11.87;;
9964;SDS011;5023;53.554;9.964;2023-03-01T10:02:23;14.03;;;12.13;;
9964;SDS011;5023;53.554;9.964;2023-03-01T10:07:38;13.77;;;11.23;;
9964;SDS011;5023;53.554;9.964;2023-03-01T10:12:49;22.13;;;11.50;;
9964;SDS011;5023;53.554;9.964;2023-03-01T10:17:55;39.70;;;28.80;;
9964;SDS011;5023;53.554;9.964;2023-03-01T10:23:01;13.20;;;10.40;;
9964;SDS011;5023;53.554;9.964;2023-03-01T10:28:05;15.40;;;11.37;;
9964;SDS011;5023;53.554;9.964;2023-03-01T10:33:16;13.50;;;10.70;;
9964;SDS011;5023;53.554;9.964;2023-03-01T10:38:23;15.03;;;12.40;;
9964;SDS011;5023;53.554;9.964;2023-03-01T10:43:26;15.03;;;11.00;;
9964;SDS011;5023;53.554;9.964;2023-03-01T10:48:33;15.03;;;10.50;;
9964;SDS011;5023;53.554;9.964;2023-03-01T10:53:37;14.97;;;10.67;;
9964;SDS011;5023;53.554;9.964;2023-03-01T10:58:56;12.03;;;9.50;;
9964;SDS011;5023;53.554;9.964;2023-03-01T11:04:08;13.53;;;10.63;;
9964;SDS011;5023;53.554;9.964;2023-03-01T11:09:18;14.97;;;11.37;;
9964;SDS011;5023;53.554;9.964;2023-03-01T11:14:22;10.97;;;8.87;;
9964;SDS011;5023;53.554;9.964;2023-03-01T11:19:25;11.27;;;8.93;;
9964;SDS011;5023;53.554;9.964;2023-03-01T11:24:31;17.60;;;12.17;;
9964;SDS011;5023;53.554;9.964;2023-03-01T11:29:38;9.97;;;8.33;;
9964;SDS011;5023;53.554;9.964;2023-03-01T11:34:45;17.37;;;11.10;;
9964;SDS011;5023;53.554;9.964;2023-03-01T11:39:56;8.10;;;6.63;;
9964;SDS011;5023;53.554;9.964;2023-03-01T11:45:07;8.93;;;7.13;;
9964;SDS011;5023;53.554;9.964;2023-03-01T11:50:16;9.13;;;7.10;;
9964;SDS011;5023;53.554;9.964;2023-03-01T11:55:35;10.67;;;8.20;;
9964;SDS011;5023;53.554;9.964;2023-03-01T12:00:52;9.63;;;6.40;;
9964;SDS011;5023;53.554;9.964;2023-03-01T12:11:54;5.60;;;4.97;;
9964;SDS011;5023;53.554;9.964;2023-03-01T12:17:19;6.43;;;5.27;;
9964;SDS011;5023;53.554;9.964;2023-03-01T12:22:31;15.83;;;11.80;;
9964;SDS011;5023;53.554;9.964;2023-03-01T12:27:46;18.10;;;13.13;;
9964;SDS011;5023;53.554;9.964;2023-03-01T12:33:04;12.00;;;7.83;;
9964;SDS011;5023;53.554;9.964;2023-03-01T12:38:22;11.90;;;6.70;;
9964;SDS011;5023;53.554;9.964;2023-03-01T12:43:39;17.03;;;11.07;;
9964;SDS011;5023;53.554;9.964;2023-03-01T12:48:53;7.33;;;6.00;;
9964;SDS011;5023;53.554;9.964;2023-03-01T12:54:01;13.07;;;8.60;;
9964;SDS011;5023;53.554;9.964;2023-03-01T12:59:18;34.83;;;29.60;;
9964;SDS011;5023;53.554;9.964;2023-03-01T13:04:30;7.67;;;6.80;;
9964;SDS011;5023;53.554;9.964;2023-03-01T13:09:40;7.80;;;6.73;;
9964;SDS011;5023;53.554;9.964;2023-03-01T13:14:56;8.83;;;7.70;;
9964;SDS011;5023;53.554;9.964;2023-03-01T13:19:58;8.17;;;7.07;;
9964;SDS011;5023;53.554;9.964;2023-03-01T13:25:12;9.73;;;7.43;;
9964;SDS011;5023;53.554;9.964;2023-03-01T13:35:44;9.70;;;7.63;;
9964;SDS011;5023;53.554;9.964;2023-03-01T13:40:59;7.77;;;6.80;;
9964;SDS011;5023;53.554;9.964;2023-03-01T13:46:07;10.97;;;8.80;;
9964;SDS011;5023;53.554;9.964;2023-03-01T13:51:11;11.13;;;9.93;;
9964;SDS011;5023;53.554;9.964;2023-03-01T13:56:15;8.30;;;7.13;;
9964;SDS011;5023;53.554;9.964;2023-03-01T14:01:25;10.67;;;9.47;;
9964;SDS011;5023;53.554;9.964;2023-03-01T14:06:33;8.53;;;7.57;;
9964;SDS011;5023;53.554;9.964;2023-03-01T14:17:30;10.03;;;8.20;;
9964;SDS011;5023;53.554;9.964;2023-03-01T14:22:47;7.73;;;6.03;;
9964;SDS011;5023;53.554;9.964;2023-03-01T14:27:54;10.40;;;8.93;;
9964;SDS011;5023;53.554;9.964;2023-03-01T14:33:17;12.43;;;9.67;;
9964;SDS011;5023;53.554;9.964;2023-03-01T14:38:33;35.83;;;7.57;;
9964;SDS011;5023;53.554;9.964;2023-03-01T14:43:52;6.50;;;5.80;;
9964;SDS011;5023;53.554;9.964;2023-03-01T14:49:03;5.87;;;5.27;;
9964;SDS011;5023;53.554;9.964;2023-03-01T14:54:13;6.03;;;5.40;;
9964;SDS011;5023;53.554;9.964;2023-03-01T14:59:25;5.70;;;5.10;;
9964;SDS011;5023;53.554;9.964;2023-03-01T15:04:30;10.17;;;8.30;;
9964;SDS011;5023;53.554;9.964;2023-03-01T15:09:34;16.30;;;11.77;;
9964;SDS011;5023;53.554;9.964;2023-03-01T15:14:39;17.67;;;14.20;;
9964;SDS011;5023;53.554;9.964;2023-03-01T15:25:01;8.23;;;6.57;;
9964;SDS011;5023;53.554;9.964;2023-03-01T15:30:04;6.70;;;5.57;;
9964;SDS011;5023;53.554;9.964;2023-03-01T15:40:49;15.60;;;11.47;;
9964;SDS011;5023;53.554;9.964;2023-03-01T15:45:55;9.53;;;6.70;;
9964;SDS011;5023;53.554;9.964;2023-03-01T15:50:59;8.27;;;7.10;;
9964;SDS011;5023;53.554;9.964;2023-03-01T15:56:02;8.97;;;7.13;;
9964;SDS011;5023;53.554;9.964;2023-03-01T16:01:08;11.37;;;9.23;;
9964;SDS011;5023;53.554;9.964;2023-03-01T16:06:16;11.30;;;8.83;;
9964;SDS011;5023;53.554;9.964;2023-03-01T16:11:20;12.13;;;9.07;;
9964;SDS011;5023;53.554;9.964;2023-03-01T16:16:29;13.07;;;9.37;;
9964;SDS011;5023;53.554;9.964;2023-03-01T16:21:34;14.57;;;10.33;;
9964;SDS011;5023;53.554;9.964;2023-03-01T16:26:37;15.53;;;11.17;;
9964;SDS011;5023;53.554;9.964;2023-03-01T16:31:39;19.53;;;13.33;;
9964;SDS011;5023;53.554;9.964;2023-03-01T16:36:45;29.87;;;21.40;;
9964;SDS011;5023;53.554;9.964;2023-03-01T16:42:44;18.07;;;12.93;;
9964;SDS011;5023;53.554;9.964;2023-03-01T16:47:49;33.70;;;24.10;;
9964;SDS011;5023;53.554;9.964;2023-03-01T16:52:54;14.60;;;11.27;;
9964;SDS011;5023;53.554;9.964;2023-03-01T16:57:57;14.23;;;11.87;;
9964;SDS011;5023;53.554;9.964;2023-03-01T17:03:00;19.47;;;13.40;;
9964;SDS011;5023;53.554;9.964;2023-03-01T17:08:04;13.67;;;11.10;;
9964;SDS011;5023;53.554;9.964;2023-03-01T17:13:11;19.40;;;14.47;;
9964;SDS011;5023;53.554;9.964;2023-03-01T17:18:14;15.13;;;10.63;;
9964;SDS011;5023;53.554;9.964;2023-03-01T17:23:18;14.53;;;10.07;;
9964;SDS011;5023;53.554;9.964;2023-03-01T17:28:21;17.43;;;12.00;;
9964;SDS011;5023;53.554;9.964;2023-03-01T17:33:27;11.07;;;9.50;;
9964;SDS011;5023;53.554;9.964;2023-03-01T17:38:32;15.00;;;11.13;;
9964;SDS011;5023;53.554;9.964;2023-03-01T17:43:36;12.23;;;9.13;;
9964;SDS011;5023;53.554;9.964;2023-03-01T17:48:39;11.43;;;9.77;;
9964;SDS011;5023;53.554;9.964;2023-03-01T17:53:49;11.87;;;9.87;;
9964;SDS011;5023;53.554;9.964;2023-03-01T17:58:51;10.17;;;8.43;;
9964;SDS011;5023;53.554;9.964;2023-03-01T18:03:53;9.37;;;7.60;;
9964;SDS011;5023;53.554;9.964;2023-03-01T18:08:57;11.13;;;9.87;;
9964;SDS011;5023;53.554;9.964;2023-03-01T18:13:59;9.97;;;8.97;;
9964;SDS011;5023;53.554;9.964;2023-03-01T18:19:02;13.03;;;10.07;;
9964;SDS011;5023;53.554;9.964;2023-03-01T18:24:06;9.53;;;8.43;;
9964;SDS011;5023;53.554;9.964;2023-03-01T18:29:08;13.37;;;9.33;;
9964;SDS011;5023;53.554;9.964;2023-03-01T18:34:10;13.80;;;10.83;;
9964;SDS011;5023;53.554;9.964;2023-03-01T18:39:14;17.60;;;13.70;;
9964;SDS011;5023;53.554;9.964;2023-03-01T18:44:17;13.17;;;10.20;;
9964;SDS011;5023;53.554;9.964;2023-03-01T18:49:19;14.33;;;11.83;;
9964;SDS011;5023;53.554;9.964;2023-03-01T18:54:23;15.37;;;12.10;;
9964;SDS011;5023;53.554;9.964;2023-03-01T18:59:25;18.00;;;14.30;;
9964;SDS011;5023;53.554;9.964;2023-03-01T19:04:29;19.20;;;14.07;;
9964;SDS011;5023;53.554;9.964;2023-03-01T19:09:32;29.67;;;21.57;;
9964;SDS011;5023;53.554;9.964;2023-03-01T19:14:34;19.13;;;15.50;;
9964;SDS011;5023;53.554;9.964;2023-03-01T19:19:37;21.17;;;16.50;;
9964;SDS011;5023;53.554;9.964;2023-03-01T19:24:43;24.30;;;17.03;;
9964;SDS011;5023;53.554;9.964;2023-03-01T19:29:46;23.60;;;17.43;;
9964;SDS011;5023;53.554;9.964;2023-03-01T19:34:48;26.30;;;17.47;;
9964;SDS011;5023;53.554;9.964;2023-03-01T19:39:52;33.30;;;20.83;;
9964;SDS011;5023;53.554;9.964;2023-03-01T19:44:54;34.20;;;22.03;;
9964;SDS011;5023;53.554;9.964;2023-03-01T19:49:56;49.60;;;32.73;;
9964;SDS011;5023;53.554;9.964;2023-03-01T19:55:00;28.17;;;19.63;;
9964;SDS011;5023;53.554;9.964;2023-03-01T20:00:02;33.40;;;24.87;;
9964;SDS011;5023;53.554;9.964;2023-03-01T20:05:06;31.60;;;22.63;;
9964;SDS011;5023;53.554;9.964;2023-03-01T20:10:11;35.13;;;23.67;;
9964;SDS011;5023;53.554;9.964;2023-03-01T20:15:13;31.83;;;21.77;;
9964;SDS011;5023;53.554;9.964;2023-03-01T20:20:17;42.47;;;30.33;;
9964;SDS011;5023;53.554;9.964;2023-03-01T20:25:23;35.67;;;23.40;;
9964;SDS011;5023;53.554;9.964;2023-03-01T20:30:25;34.30;;;23.90;;
9964;SDS011;5023;53.554;9.964;2023-03-01T20:35:27;33.17;;;22.67;;
9964;SDS011;5023;53.554;9.964;2023-03-01T20:40:34;29.60;;;20.37;;
9964;SDS011;5023;53.554;9.964;2023-03-01T20:45:37;32.77;;;24.13;;
9964;SDS011;5023;53.554;9.964;2023-03-01T20:50:39;33.10;;;22.23;;
9964;SDS011;5023;53.554;9.964;2023-03-01T20:55:43;32.87;;;22.37;;
9964;SDS011;5023;53.554;9.964;2023-03-01T21:00:48;33.10;;;21.93;;
9964;SDS011;5023;53.554;9.964;2023-03-01T21:05:53;32.03;;;22.50;;
9964;SDS011;5023;53.554;9.964;2023-03-01T21:10:57;37.97;;;25.93;;
9964;SDS011;5023;53.554;9.964;2023-03-01T21:16:02;39.87;;;27.27;;
9964;SDS011;5023;53.554;9.964;2023-03-01T21:21:07;35.97;;;25.70;;
9964;SDS011;5023;53.554;9.964;2023-03-01T21:26:13;32.67;;;22.27;;
9964;SDS011;5023;53.554;9.964;2023-03-01T21:31:18;35.30;;;23.27;;
9964;SDS011;5023;53.554;9.964;2023-03-01T21:36:22;35.93;;;23.17;;
9964;SDS011;5023;53.554;9.964;2023-03-01T21:41:27;32.57;;;22.33;;
9964;SDS011;5023;53.554;9.964;2023-03-01T21:46:31;35.67;;;22.43;;
9964;SDS011;5023;53.554;9.964;2023-03-01T21:51:35;39.03;;;27.57;;
9964;SDS011;5023;53.554;9.964;2023-03-01T21:56:39;37.13;;;24.83;;
9964;SDS011;5023;53.554;9.964;2023-03-01T22:01:42;30.87;;;21.07;;
9964;SDS011;5023;53.554;9.964;2023-03-01T22:06:45;29.97;;;19.47;;
9964;SDS011;5023;53.554;9.964;2023-03-01T22:11:49;29.77;;;20.37;;
9964;SDS011;5023;53.554;9.964;2023-03-01T22:16:53;32.20;;;21.17;;
9964;SDS011;5023;53.554;9.964;2023-03-01T22:21:56;35.13;;;20.70;;
9964;SDS011;5023;53.554;9.964;2023-03-01T22:27:02;29.33;;;19.93;;
9964;SDS011;5023;53.554;9.964;2023-03-01T22:32:04;31.87;;;21.23;;
9964;SDS011;5023;53.554;9.964;2023-03-01T22:37:06;29.80;;;19.50;;
9964;SDS011;5023;53.554;9.964;2023-03-01T22:42:10;31.80;;;20.77;;
9964;SDS011;5023;53.554;9.964;2023-03-01T22:47:11;30.83;;;20.27;;
9964;SDS011;5023;53.554;9.964;2023-03-01T22:52:13;30.37;;;20.87;;
9964;SDS011;5023;53.554;9.964;2023-03-01T22:57:17;31.47;;;19.83;;
9964;SDS011;5023;53.554;9.964;2023-03-01T23:02:19;31.67;;;18.20;;
9964;SDS011;5023;53.554;9.964;2023-03-01T23:07:22;28.40;;;18.50;;
9964;SDS011;5023;53.554;9.964;2023-03-01T23:12:26;27.23;;;18.93;;
9964;SDS011;5023;53.554;9.964;2023-03-01T23:17:28;28.73;;;18.90;;
9964;SDS011;5023;53.554;9.964;2023-03-01T23:22:30;26.97;;;18.33;;
9964;SDS011;5023;53.554;9.964;2023-03-01T23:27:36;27.20;;;18.20;;
9964;SDS011;5023;53.554;9.964;2023-03-01T23:32:38;24.33;;;17.23;;
9964;SDS011;5023;53.554;9.964;2023-03-01T23:37:40;26.33;;;17.63;;
9964;SDS011;5023;53.554;9.964;2023-03-01T23:42:45;27.17;;;17.77;;
9964;SDS011;5023;53.554;9.964;2023-03-01T23:47:47;27.83;;;17.60;;
9964;SDS011;5023;53.554;9.964;2023-03-01T23:52:49;27.10;;;17.20;;
9964;SDS011;5023;53.554;9.964;2023-03-01T23:57:52;25.40;;;16.93;;
